createdAt,value
2023-01-22T00:00:54.554Z,6.80
2023-01-22T00:03:46.195Z,6.80
2023-01-22T00:06:32.690Z,6.85
2023-01-22T00:09:18.694Z,6.28
2023-01-22T00:12:04.392Z,7.87
2023-01-22T00:14:50.881Z,5.78
2023-01-22T00:17:37.840Z,7.63
2023-01-22T00:20:23.673Z,6.53
2023-01-22T00:23:09.630Z,7.40
2023-01-22T00:26:11.895Z,9.10
2023-01-22T00:28:58.514Z,6.73
2023-01-22T00:31:44.553Z,10.80
2023-01-22T00:34:30.720Z,7.80
2023-01-22T00:37:16.671Z,7.82
2023-01-22T00:40:04.317Z,8.40
2023-01-22T00:42:50.413Z,8.45
2023-01-22T00:45:36.269Z,6.85
2023-01-22T00:48:22.670Z,7.57
2023-01-22T00:51:09.244Z,7.35
2023-01-22T00:53:55.644Z,6.85
2023-01-22T00:56:41.440Z,6.70
2023-01-22T00:59:27.940Z,7.20
2023-01-22T01:02:14.286Z,8.65
2023-01-22T01:05:01.964Z,7.50
2023-01-22T01:07:47.555Z,7.15
2023-01-22T01:10:33.322Z,7.63
2023-01-22T01:13:18.780Z,6.90
2023-01-22T01:16:12.408Z,6.95
2023-01-22T01:18:59.722Z,9.05
2023-01-22T01:21:45.635Z,7.65
2023-01-22T01:24:31.439Z,6.65
2023-01-22T01:27:17.214Z,6.10
2023-01-22T01:30:03.951Z,6.88
2023-01-22T01:32:50.207Z,6.35
2023-01-22T01:35:36.327Z,6.75
2023-01-22T01:38:22.686Z,5.45
2023-01-22T01:41:11.371Z,6.32
2023-01-22T01:44:19.797Z,6.88
2023-01-22T01:47:20.945Z,7.30
2023-01-22T01:50:07.494Z,6.45
2023-01-22T01:52:54.232Z,8.70
2023-01-22T01:55:40.824Z,7.60
2023-01-22T01:58:29.881Z,7.32
2023-01-22T02:01:18.394Z,6.57
2023-01-22T02:04:04.543Z,8.00
2023-01-22T02:06:50.405Z,7.70
2023-01-22T02:09:36.412Z,7.78
2023-01-22T02:12:22.179Z,8.15
2023-01-22T02:15:09.581Z,7.07
2023-01-22T02:17:55.558Z,8.10
2023-01-22T02:20:51.516Z,7.20
2023-01-22T02:23:37.343Z,7.63
2023-01-22T02:26:23.572Z,8.60
2023-01-22T02:29:12.615Z,8.15
2023-01-22T02:31:58.393Z,7.50
2023-01-22T02:34:44.242Z,7.40
2023-01-22T02:37:30.438Z,7.43
2023-01-22T02:40:16.973Z,7.00
2023-01-22T02:43:03.243Z,7.50
2023-01-22T02:45:49.163Z,7.50
2023-01-22T02:48:34.883Z,7.40
2023-01-22T02:51:21.418Z,7.10
2023-01-22T02:54:09.508Z,6.90
2023-01-22T02:56:56.788Z,7.43
2023-01-22T02:59:43.006Z,6.85
2023-01-22T03:02:30.527Z,8.98
2023-01-22T03:05:15.955Z,7.20
2023-01-22T03:08:02.001Z,7.95
2023-01-22T03:10:48.255Z,7.72
2023-01-22T03:13:52.941Z,6.50
2023-01-22T03:16:57.997Z,7.30
2023-01-22T03:20:02.232Z,7.03
2023-01-22T03:22:47.662Z,8.02
2023-01-22T03:25:33.573Z,7.85
2023-01-22T03:28:19.697Z,7.03
2023-01-22T03:31:11.033Z,6.13
2023-01-22T03:33:58.451Z,6.65
2023-01-22T03:36:44.724Z,8.35
2023-01-22T03:39:31.938Z,7.03
2023-01-22T03:42:18.109Z,6.78
2023-01-22T03:45:05.329Z,6.85
2023-01-22T03:47:56.199Z,5.80
2023-01-22T03:50:49.677Z,6.72
2023-01-22T03:53:36.059Z,6.75
2023-01-22T03:56:24.083Z,7.88
2023-01-22T03:59:13.428Z,5.93
2023-01-22T04:02:00.230Z,8.02
2023-01-22T04:04:48.038Z,9.50
2023-01-22T04:07:34.140Z,7.23
2023-01-22T04:10:20.749Z,6.38
2023-01-22T04:13:07.554Z,8.80
2023-01-22T04:15:54.256Z,9.90
2023-01-22T04:18:58.791Z,7.68
2023-01-22T04:21:50.625Z,7.77
2023-01-22T04:24:38.235Z,8.18
2023-01-22T04:27:24.773Z,8.23
2023-01-22T04:30:13.661Z,8.65
2023-01-22T04:32:59.976Z,6.20
2023-01-22T04:36:16.186Z,7.15
2023-01-22T04:39:03.379Z,4.85
2023-01-22T04:41:49.413Z,5.90
2023-01-22T04:44:35.194Z,6.68
2023-01-22T04:47:20.602Z,5.25
2023-01-22T04:50:07.377Z,4.88
2023-01-22T04:52:54.699Z,5.65
2023-01-22T04:55:42.090Z,5.27
2023-01-22T04:58:29.497Z,5.75
2023-01-22T05:01:17.983Z,4.80
2023-01-22T05:04:05.136Z,5.47
2023-01-22T05:06:54.328Z,6.32
2023-01-22T05:09:40.585Z,8.00
2023-01-22T05:12:27.491Z,5.53
2023-01-22T05:15:23.511Z,7.03
2023-01-22T05:18:12.390Z,4.80
2023-01-22T05:21:06.402Z,5.17
2023-01-22T05:23:55.125Z,5.60
2023-01-22T05:26:42.918Z,5.60
2023-01-22T05:29:33.255Z,5.80
2023-01-22T05:32:43.773Z,4.10
2023-01-22T05:35:30.137Z,5.25
2023-01-22T05:38:16.675Z,5.38
2023-01-22T05:41:02.341Z,7.85
2023-01-22T05:43:52.184Z,5.28
2023-01-22T05:46:42.901Z,4.60
2023-01-22T05:49:54.414Z,6.88
2023-01-22T05:52:40.365Z,5.70
2023-01-22T05:55:27.396Z,5.57
2023-01-22T05:58:13.593Z,6.05
2023-01-22T06:01:02.496Z,5.72
2023-01-22T06:03:53.862Z,6.65
2023-01-22T06:06:42.476Z,5.78
2023-01-22T06:09:28.464Z,5.93
2023-01-22T06:12:16.050Z,6.97
2023-01-22T06:15:01.737Z,6.10
2023-01-22T06:17:47.533Z,5.97
2023-01-22T06:20:33.600Z,5.53
2023-01-22T06:23:19.953Z,7.23
2023-01-22T06:26:07.462Z,8.00
2023-01-22T06:28:55.356Z,6.22
2023-01-22T06:31:42.487Z,6.30
2023-01-22T06:34:28.746Z,6.65
2023-01-22T06:37:16.178Z,6.53
2023-01-22T06:40:02.616Z,7.43
2023-01-22T06:43:02.650Z,7.25
2023-01-22T06:45:48.960Z,7.18
2023-01-22T06:48:37.873Z,7.78
2023-01-22T06:51:23.871Z,8.00
2023-01-22T06:54:12.589Z,8.40
2023-01-22T06:56:58.525Z,7.20
2023-01-22T06:59:44.802Z,6.70
2023-01-22T07:02:31.411Z,5.90
2023-01-22T07:05:19.653Z,6.75
2023-01-22T07:08:05.789Z,6.25
2023-01-22T07:10:51.432Z,6.88
2023-01-22T07:13:37.265Z,7.60
2023-01-22T07:16:23.187Z,6.30
2023-01-22T07:19:09.686Z,5.57
2023-01-22T07:21:55.699Z,7.53
2023-01-22T07:24:42.180Z,6.13
2023-01-22T07:27:27.945Z,7.47
2023-01-22T07:30:14.254Z,5.60
2023-01-22T07:33:01.184Z,7.93
2023-01-22T07:35:55.197Z,6.10
2023-01-22T07:38:40.783Z,7.30
2023-01-22T07:41:27.068Z,5.65
2023-01-22T07:44:13.544Z,6.47
2023-01-22T07:46:59.132Z,5.75
2023-01-22T07:49:44.482Z,6.68
2023-01-22T07:52:30.351Z,6.80
2023-01-22T07:55:16.511Z,6.05
2023-01-22T07:58:06.727Z,6.85
2023-01-22T08:00:52.859Z,6.88
2023-01-22T08:03:39.375Z,5.55
2023-01-22T08:06:25.571Z,6.07
2023-01-22T08:09:11.637Z,5.90
2023-01-22T08:11:57.332Z,5.82
2023-01-22T08:14:42.685Z,7.97
2023-01-22T08:17:28.688Z,5.50
2023-01-22T08:20:15.259Z,6.15
2023-01-22T08:23:01.979Z,6.65
2023-01-22T08:25:47.666Z,5.88
2023-01-22T08:28:33.236Z,6.07
2023-01-22T08:31:27.423Z,8.05
2023-01-22T08:34:13.738Z,8.48
2023-01-22T08:36:59.155Z,7.78
2023-01-22T08:39:45.075Z,8.05
2023-01-22T08:42:30.558Z,7.78
2023-01-22T08:45:16.429Z,7.82
2023-01-22T08:48:02.489Z,7.57
2023-01-22T08:50:48.653Z,7.75
2023-01-22T08:53:35.167Z,7.38
2023-01-22T08:56:21.214Z,8.68
2023-01-22T08:59:06.765Z,7.70
2023-01-22T09:01:53.196Z,9.02
2023-01-22T09:04:40.510Z,8.25
2023-01-22T09:07:26.507Z,6.72
2023-01-22T09:10:13.000Z,8.82
2023-01-22T09:13:00.940Z,7.43
2023-01-22T09:15:46.375Z,7.25
2023-01-22T09:18:32.396Z,7.05
2023-01-22T09:21:18.691Z,8.40
2023-01-22T09:24:05.709Z,8.20
2023-01-22T09:26:51.717Z,7.15
2023-01-22T09:29:37.800Z,7.88
2023-01-22T09:32:24.701Z,9.20
2023-01-22T09:35:10.779Z,8.73
2023-01-22T09:37:57.327Z,8.07
2023-01-22T09:40:50.140Z,7.90
2023-01-22T09:43:51.176Z,6.00
2023-01-22T09:46:45.887Z,5.63
2023-01-22T09:49:54.610Z,6.47
2023-01-22T09:52:41.260Z,8.73
2023-01-22T09:55:32.132Z,6.78
2023-01-22T09:58:22.091Z,7.97
2023-01-22T10:01:08.366Z,6.30
2023-01-22T10:04:00.362Z,6.53
2023-01-22T10:06:47.800Z,7.57
2023-01-22T10:09:34.983Z,6.65
2023-01-22T10:12:21.202Z,8.27
2023-01-22T10:15:12.868Z,7.60
2023-01-22T10:17:59.916Z,6.78
2023-01-22T10:20:46.092Z,5.95
2023-01-22T10:23:34.496Z,5.85
2023-01-22T10:26:25.767Z,5.63
2023-01-22T10:29:21.876Z,4.57
2023-01-22T10:32:22.372Z,7.28
2023-01-22T10:35:11.347Z,5.68
2023-01-22T10:37:58.008Z,4.20
2023-01-22T10:40:43.982Z,3.58
2023-01-22T10:43:32.115Z,3.38
2023-01-22T10:46:23.242Z,3.75
2023-01-22T10:49:17.470Z,3.85
2023-01-22T10:52:18.805Z,3.45
2023-01-22T10:55:05.783Z,4.32
2023-01-22T10:57:59.590Z,5.85
2023-01-22T11:00:57.120Z,3.20
2023-01-22T11:03:42.806Z,4.28
2023-01-22T11:06:41.968Z,5.10
2023-01-22T11:09:40.503Z,8.43
2023-01-22T11:12:33.105Z,4.00
2023-01-22T11:15:53.843Z,3.30
2023-01-22T11:18:43.669Z,3.93
2023-01-22T11:21:35.949Z,4.82
2023-01-22T11:24:42.869Z,3.42
2023-01-22T11:27:51.520Z,3.60
2023-01-22T11:30:48.923Z,4.78
2023-01-22T11:33:59.096Z,4.22
2023-01-22T11:36:53.536Z,3.45
2023-01-22T11:39:51.579Z,3.35
2023-01-22T11:42:46.196Z,6.25
2023-01-22T11:46:04.564Z,7.57
2023-01-22T11:49:28.172Z,5.65
2023-01-22T11:52:17.311Z,4.80
2023-01-22T11:55:16.508Z,4.40
2023-01-22T11:58:52.515Z,3.13
2023-01-22T12:01:59.461Z,3.88
2023-01-22T12:05:16.971Z,3.10
2023-01-22T12:08:06.407Z,4.60
2023-01-22T12:11:24.427Z,4.40
2023-01-22T12:14:47.330Z,2.73
2023-01-22T12:17:43.789Z,3.00
2023-01-22T12:20:40.642Z,3.50
2023-01-22T12:23:49.287Z,3.17
2023-01-22T12:26:41.525Z,3.55
2023-01-22T12:29:40.306Z,3.50
2023-01-22T12:32:29.404Z,3.25
2023-01-22T12:35:19.208Z,2.93
2023-01-22T12:38:13.448Z,2.70
2023-01-22T12:41:15.391Z,2.67
2023-01-22T12:44:12.927Z,2.83
2023-01-22T12:46:58.664Z,3.00
2023-01-22T12:49:50.158Z,3.30
2023-01-22T12:52:39.474Z,3.10
2023-01-22T12:55:44.399Z,3.45
2023-01-22T12:58:36.010Z,3.72
2023-01-22T13:01:24.795Z,3.45
2023-01-22T13:04:13.385Z,3.03
2023-01-22T13:07:18.719Z,2.83
2023-01-22T13:10:26.531Z,3.03
2023-01-22T13:13:30.644Z,2.67
2023-01-22T13:16:16.587Z,3.40
2023-01-22T13:19:21.433Z,3.90
2023-01-22T13:22:14.387Z,3.03
2023-01-22T13:24:59.863Z,3.78
2023-01-22T13:27:48.238Z,3.90
2023-01-22T13:30:34.800Z,3.20
2023-01-22T13:33:20.836Z,3.22
2023-01-22T13:36:11.646Z,3.38
2023-01-22T13:38:59.794Z,2.80
2023-01-22T13:41:50.916Z,3.90
2023-01-22T13:44:43.246Z,2.90
2023-01-22T13:47:33.194Z,3.80
2023-01-22T13:50:21.835Z,3.20
2023-01-22T13:53:28.962Z,2.70
2023-01-22T13:56:20.677Z,3.20
2023-01-22T13:59:28.475Z,3.30
2023-01-22T14:02:24.435Z,3.05
2023-01-22T14:05:50.379Z,2.25
2023-01-22T14:08:50.973Z,3.22
2023-01-22T14:11:38.823Z,2.78
2023-01-22T14:14:25.860Z,3.30
2023-01-22T14:17:32.288Z,2.95
2023-01-22T14:20:18.400Z,2.65
2023-01-22T14:23:04.724Z,2.90
2023-01-22T14:25:53.047Z,2.72
2023-01-22T14:28:39.456Z,3.78
2023-01-22T14:31:25.637Z,2.58
2023-01-22T14:34:12.580Z,2.97
2023-01-22T14:36:59.279Z,3.08
2023-01-22T14:39:45.245Z,2.97
2023-01-22T14:42:31.223Z,3.10
2023-01-22T14:45:19.171Z,3.10
2023-01-22T14:48:05.934Z,3.08
2023-01-22T14:50:52.591Z,3.03
2023-01-22T14:53:40.149Z,2.83
2023-01-22T14:56:26.951Z,3.50
2023-01-22T14:59:13.379Z,2.80
2023-01-22T15:01:59.886Z,2.45
2023-01-22T15:04:46.768Z,3.65
2023-01-22T15:07:33.698Z,3.40
2023-01-22T15:10:20.779Z,3.63
2023-01-22T15:13:08.010Z,2.80
2023-01-22T15:15:53.831Z,3.58
2023-01-22T15:18:39.876Z,2.95
2023-01-22T15:21:25.517Z,3.35
2023-01-22T15:24:11.666Z,4.15
2023-01-22T15:26:58.311Z,3.45
2023-01-22T15:29:44.351Z,4.45
2023-01-22T15:32:31.207Z,6.43
2023-01-22T15:35:17.450Z,5.45
2023-01-22T15:38:05.271Z,5.22
2023-01-22T15:40:51.093Z,7.55
2023-01-22T15:43:37.434Z,4.82
2023-01-22T15:46:31.645Z,5.05
2023-01-22T15:49:18.178Z,3.90
2023-01-22T15:52:05.040Z,6.18
2023-01-22T15:54:53.825Z,4.27
2023-01-22T15:57:40.640Z,3.90
2023-01-22T16:00:27.869Z,4.68
2023-01-22T16:03:14.127Z,4.22
2023-01-22T16:06:13.793Z,3.78
2023-01-22T16:09:01.263Z,3.45
2023-01-22T16:11:47.578Z,8.13
2023-01-22T16:14:33.836Z,4.13
2023-01-22T16:17:19.876Z,5.00
2023-01-22T16:20:06.118Z,5.63
2023-01-22T16:22:51.788Z,4.90
2023-01-22T16:25:40.622Z,5.72
2023-01-22T16:28:27.289Z,7.20
2023-01-22T16:31:17.545Z,4.80
2023-01-22T16:34:16.222Z,5.10
2023-01-22T16:37:02.532Z,5.13
2023-01-22T16:39:48.074Z,7.18
2023-01-22T16:42:35.728Z,7.67
2023-01-22T16:45:23.078Z,5.05
2023-01-22T16:48:09.711Z,4.90
2023-01-22T16:50:56.008Z,5.03
2023-01-22T16:53:42.172Z,6.55
2023-01-22T16:56:27.920Z,5.55
2023-01-22T16:59:13.463Z,4.63
2023-01-22T17:02:01.251Z,4.13
2023-01-22T17:04:46.892Z,6.93
2023-01-22T17:07:34.256Z,5.10
2023-01-22T17:10:21.176Z,6.53
2023-01-22T17:13:07.395Z,5.60
2023-01-22T17:15:53.665Z,6.35
2023-01-22T17:18:39.879Z,5.85
2023-01-22T17:21:28.591Z,7.78
2023-01-22T17:24:15.423Z,6.85
2023-01-22T17:27:04.559Z,5.57
2023-01-22T17:29:50.268Z,7.27
2023-01-22T17:32:36.291Z,6.72
2023-01-22T17:35:22.248Z,5.80
2023-01-22T17:38:08.841Z,5.45
2023-01-22T17:40:56.852Z,6.53
2023-01-22T17:43:44.929Z,6.55
2023-01-22T17:46:31.955Z,5.27
2023-01-22T17:49:17.751Z,5.72
2023-01-22T17:52:03.760Z,6.43
2023-01-22T17:54:50.045Z,5.43
2023-01-22T17:57:36.373Z,7.43
2023-01-22T18:00:22.946Z,7.65
2023-01-22T18:03:08.723Z,5.88
2023-01-22T18:05:54.571Z,6.18
2023-01-22T18:08:42.389Z,6.63
2023-01-22T18:11:29.739Z,7.65
2023-01-22T18:14:21.720Z,6.53
2023-01-22T18:17:07.593Z,5.60
2023-01-22T18:19:53.644Z,5.30
2023-01-22T18:22:39.729Z,6.15
2023-01-22T18:25:25.825Z,12.07
2023-01-22T18:28:12.191Z,8.23
2023-01-22T18:31:10.433Z,5.80
2023-01-22T18:34:03.326Z,7.93
2023-01-22T18:36:49.672Z,7.50
2023-01-22T18:39:35.583Z,6.78
2023-01-22T18:42:21.548Z,5.57
2023-01-22T18:45:08.719Z,5.80
2023-01-22T18:47:54.824Z,5.13
2023-01-22T18:50:41.685Z,7.00
2023-01-22T18:53:30.736Z,6.03
2023-01-22T18:56:16.929Z,5.70
2023-01-22T18:59:02.416Z,5.32
2023-01-22T19:01:51.679Z,6.50
2023-01-22T19:04:38.056Z,5.15
2023-01-22T19:07:24.224Z,7.30
2023-01-22T19:10:10.137Z,6.25
2023-01-22T19:12:56.079Z,5.32
2023-01-22T19:15:41.813Z,7.78
2023-01-22T19:18:29.456Z,8.25
2023-01-22T19:21:19.279Z,7.70
2023-01-22T19:24:06.567Z,8.35
2023-01-22T19:26:54.685Z,8.60
2023-01-22T19:29:42.296Z,7.75
2023-01-22T19:32:30.383Z,7.60
2023-01-22T19:35:16.271Z,5.63
2023-01-22T19:38:01.953Z,10.18
2023-01-22T19:40:48.376Z,6.63
2023-01-22T19:43:34.383Z,5.80
2023-01-22T19:46:21.400Z,6.68
2023-01-22T19:49:08.497Z,6.20
2023-01-22T19:51:54.800Z,7.70
2023-01-22T19:54:44.196Z,5.18
2023-01-22T19:57:33.465Z,5.50
2023-01-22T20:00:20.928Z,6.63
2023-01-22T20:03:09.543Z,9.30
2023-01-22T20:05:56.666Z,6.00
2023-01-22T20:08:44.084Z,6.28
2023-01-22T20:11:32.739Z,6.10
2023-01-22T20:14:20.063Z,5.43
2023-01-22T20:17:07.407Z,5.43
2023-01-22T20:19:54.405Z,5.63
2023-01-22T20:22:41.195Z,5.90
2023-01-22T20:25:31.288Z,5.70
2023-01-22T20:28:20.142Z,5.65
2023-01-22T20:31:12.280Z,6.55
2023-01-22T20:33:59.278Z,6.70
2023-01-22T20:36:46.109Z,6.38
2023-01-22T20:39:33.508Z,6.03
2023-01-22T20:42:20.456Z,7.18
2023-01-22T20:45:08.923Z,7.13
2023-01-22T20:47:56.210Z,8.52
2023-01-22T20:50:43.875Z,7.40
2023-01-22T20:53:31.547Z,8.73
2023-01-22T20:56:23.952Z,6.65
2023-01-22T20:59:18.250Z,6.43
2023-01-22T21:02:05.571Z,7.25
2023-01-22T21:04:53.887Z,6.88
2023-01-22T21:07:41.028Z,7.37
2023-01-22T21:10:28.077Z,7.43
2023-01-22T21:13:18.292Z,8.52
2023-01-22T21:16:13.488Z,7.68
2023-01-22T21:19:02.962Z,7.53
2023-01-22T21:21:50.015Z,8.60
2023-01-22T21:24:37.924Z,7.68
2023-01-22T21:27:25.210Z,7.97
2023-01-22T21:30:13.425Z,8.15
2023-01-22T21:32:59.909Z,9.60
2023-01-22T21:35:51.051Z,8.43
2023-01-22T21:38:38.416Z,7.75
2023-01-22T21:41:24.655Z,7.22
2023-01-22T21:44:31.321Z,6.80
2023-01-22T21:47:18.438Z,9.10
2023-01-22T21:50:05.514Z,7.18
2023-01-22T21:52:54.414Z,6.78
2023-01-22T21:55:40.204Z,7.50
2023-01-22T21:58:26.248Z,6.10
2023-01-22T22:01:15.300Z,7.13
2023-01-22T22:04:02.661Z,7.32
2023-01-22T22:06:49.344Z,7.63
2023-01-22T22:09:35.646Z,7.30
2023-01-22T22:12:21.362Z,7.45
2023-01-22T22:15:09.955Z,7.47
2023-01-22T22:17:55.324Z,7.32
2023-01-22T22:20:41.631Z,6.80
2023-01-22T22:23:28.736Z,8.20
2023-01-22T22:26:14.868Z,7.63
2023-01-22T22:29:00.802Z,6.35
2023-01-22T22:31:46.631Z,7.47
2023-01-22T22:34:32.667Z,7.43
2023-01-22T22:37:18.545Z,7.55
2023-01-22T22:40:05.814Z,7.18
2023-01-22T22:42:52.400Z,8.18
2023-01-22T22:45:38.849Z,6.75
2023-01-22T22:48:24.535Z,8.43
2023-01-22T22:51:35.467Z,6.78
2023-01-22T22:54:21.297Z,7.40
2023-01-22T22:57:06.784Z,7.40
2023-01-22T22:59:52.933Z,7.72
2023-01-22T23:02:38.744Z,8.50
2023-01-22T23:05:24.517Z,7.05
2023-01-22T23:08:10.311Z,7.97
2023-01-22T23:10:55.768Z,7.90
2023-01-22T23:13:46.791Z,7.75
2023-01-22T23:16:35.108Z,6.85
2023-01-22T23:19:24.546Z,7.05
2023-01-22T23:22:10.569Z,25.10
2023-01-22T23:24:55.934Z,8.93
2023-01-22T23:27:41.716Z,8.77
2023-01-22T23:30:27.656Z,8.15
2023-01-22T23:33:13.071Z,7.82
2023-01-22T23:36:10.071Z,7.10
2023-01-22T23:38:56.410Z,8.68
2023-01-22T23:41:43.326Z,8.63
2023-01-22T23:44:29.011Z,7.93
2023-01-22T23:47:15.667Z,7.45
2023-01-22T23:50:01.723Z,7.57
2023-01-22T23:52:47.848Z,7.57
2023-01-22T23:55:33.300Z,7.10
2023-01-22T23:58:20.875Z,7.70
